sensor_id;sensor_type;location;lat;lon;timestamp;pressure;altitude;pressure_sealevel;temperature;humidity
16821;BME280;8527;49.740;6.604;2023-04-26T00:03:29;99974.84;;;4.46;83.08
16821;BME280;8527;49.740;6.604;2023-04-26T00:08:31;99981.97;;;4.11;83.62
16821;BME280;8527;49.740;6.604;2023-04-26T00:13:36;99983.72;;;4.11;84.27
16821;BME280;8527;49.740;6.604;2023-04-26T00:18:38;99997.31;;;4.04;84.59
16821;BME280;8527;49.740;6.604;2023-04-26T00:23:40;99995.53;;;4.05;84.22
16821;BME280;8527;49.740;6.604;2023-04-26T00:28:41;99986.59;;;3.85;84.18
16821;BME280;8527;49.740;6.604;2023-04-26T00:33:44;99985.19;;;3.80;84.34
16821;BME280;8527;49.740;6.604;2023-04-26T00:38:45;99981.34;;;3.85;85.26
16821;BME280;8527;49.740;6.604;2023-04-26T00:43:54;99976.09;;;3.85;85.21
16821;BME280;8527;49.740;6.604;2023-04-26T00:48:55;99978.28;;;3.79;85.29
16821;BME280;8527;49.740;6.604;2023-04-26T00:53:57;99977.06;;;3.72;84.16
16821;BME280;8527;49.740;6.604;2023-04-26T00:58:59;99980.25;;;3.53;84.98
16821;BME280;8527;49.740;6.604;2023-04-26T01:03:58;99978.94;;;3.47;84.35
16821;BME280;8527;49.740;6.604;2023-04-26T01:08:57;99980.84;;;3.45;85.42
16821;BME280;8527;49.740;6.604;2023-04-26T01:14:05;99984.75;;;3.28;84.79
16821;BME280;8527;49.740;6.604;2023-04-26T01:19:09;99986.38;;;3.18;84.96
16821;BME280;8527;49.740;6.604;2023-04-26T01:24:11;99989.81;;;3.07;86.82
16821;BME280;8527;49.740;6.604;2023-04-26T01:29:14;99986.63;;;3.15;86.24
16821;BME280;8527;49.740;6.604;2023-04-26T01:34:14;99974.16;;;3.30;86.48
16821;BME280;8527;49.740;6.604;2023-04-26T01:39:15;99984.47;;;3.20;85.69
16821;BME280;8527;49.740;6.604;2023-04-26T01:44:17;99976.47;;;3.10;84.99
16821;BME280;8527;49.740;6.604;2023-04-26T01:49:20;99978.78;;;2.90;85.07
16821;BME280;8527;49.740;6.604;2023-04-26T01:54:20;99990.44;;;2.86;84.74
16821;BME280;8527;49.740;6.604;2023-04-26T01:59:19;99983.19;;;2.90;86.08
16821;BME280;8527;49.740;6.604;2023-04-26T02:04:20;99981.25;;;2.80;85.89
16821;BME280;8527;49.740;6.604;2023-04-26T02:09:21;99979.28;;;2.71;87.48
16821;BME280;8527;49.740;6.604;2023-04-26T02:14:23;99975.78;;;2.59;87.16
16821;BME280;8527;49.740;6.604;2023-04-26T02:19:21;99980.59;;;2.65;88.11
16821;BME280;8527;49.740;6.604;2023-04-26T02:24:22;99986.88;;;2.63;87.84
16821;BME280;8527;49.740;6.604;2023-04-26T02:29:21;99987.31;;;2.57;87.07
16821;BME280;8527;49.740;6.604;2023-04-26T02:34:19;99973.97;;;2.48;86.65
16821;BME280;8527;49.740;6.604;2023-04-26T02:39:18;99983.16;;;2.54;87.88
16821;BME280;8527;49.740;6.604;2023-04-26T02:44:21;99988.00;;;2.47;87.28
16821;BME280;8527;49.740;6.604;2023-04-26T02:49:22;99979.59;;;2.55;88.13
16821;BME280;8527;49.740;6.604;2023-04-26T02:54:29;99970.56;;;2.59;88.32
16821;BME280;8527;49.740;6.604;2023-04-26T02:59:32;99980.88;;;2.49;87.76
16821;BME280;8527;49.740;6.604;2023-04-26T03:04:36;99975.72;;;2.23;87.41
16821;BME280;8527;49.740;6.604;2023-04-26T03:09:36;99955.91;;;2.19;87.83
16821;BME280;8527;49.740;6.604;2023-04-26T03:14:37;99950.09;;;2.16;88.64
16821;BME280;8527;49.740;6.604;2023-04-26T03:19:36;99957.94;;;2.03;87.59
16821;BME280;8527;49.740;6.604;2023-04-26T03:24:35;99950.16;;;1.90;87.79
16821;BME280;8527;49.740;6.604;2023-04-26T03:29:39;99949.19;;;1.91;88.31
16821;BME280;8527;49.740;6.604;2023-04-26T03:34:38;99957.16;;;1.89;88.69
16821;BME280;8527;49.740;6.604;2023-04-26T03:39:45;99957.16;;;1.89;88.63
16821;BME280;8527;49.740;6.604;2023-04-26T03:44:47;99958.72;;;1.79;88.01
16821;BME280;8527;49.740;6.604;2023-04-26T03:49:46;99952.44;;;1.68;89.16
16821;BME280;8527;49.740;6.604;2023-04-26T03:54:51;99946.72;;;1.63;88.67
16821;BME280;8527;49.740;6.604;2023-04-26T03:59:55;99957.91;;;1.65;89.24
16821;BME280;8527;49.740;6.604;2023-04-26T04:04:57;99957.16;;;1.76;88.83
16821;BME280;8527;49.740;6.604;2023-04-26T04:09:55;99944.59;;;1.81;88.67
16821;BME280;8527;49.740;6.604;2023-04-26T04:14:56;99965.75;;;1.65;88.38
16821;BME280;8527;49.740;6.604;2023-04-26T04:19:55;99959.47;;;1.68;89.40
16821;BME280;8527;49.740;6.604;2023-04-26T04:24:54;99967.72;;;1.62;88.70
16821;BME280;8527;49.740;6.604;2023-04-26T04:29:57;99969.63;;;1.47;88.85
16821;BME280;8527;49.740;6.604;2023-04-26T04:35:01;99977.78;;;1.55;88.93
16821;BME280;8527;49.740;6.604;2023-04-26T04:40:06;99973.28;;;1.44;89.22
16821;BME280;8527;49.740;6.604;2023-04-26T04:45:10;99968.25;;;1.54;88.73
16821;BME280;8527;49.740;6.604;2023-04-26T04:50:12;99979.78;;;1.64;88.75
16821;BME280;8527;49.740;6.604;2023-04-26T04:55:10;99967.72;;;1.75;89.69
16821;BME280;8527;49.740;6.604;2023-04-26T05:00:12;99982.25;;;1.79;89.38
16821;BME280;8527;49.740;6.604;2023-04-26T05:05:17;99976.59;;;1.98;89.76
16821;BME280;8527;49.740;6.604;2023-04-26T05:10:15;99993.81;;;2.14;90.43
16821;BME280;8527;49.740;6.604;2023-04-26T05:15:19;99998.41;;;2.36;90.89
16821;BME280;8527;49.740;6.604;2023-04-26T05:20:17;100006.81;;;2.52;92.17
16821;BME280;8527;49.740;6.604;2023-04-26T05:25:16;100009.16;;;2.44;93.01
16821;BME280;8527;49.740;6.604;2023-04-26T05:30:21;100015.47;;;2.90;93.48
16821;BME280;8527;49.740;6.604;2023-04-26T05:35:22;100010.50;;;3.34;92.34
16821;BME280;8527;49.740;6.604;2023-04-26T05:40:20;100005.25;;;3.23;91.71
16821;BME280;8527;49.740;6.604;2023-04-26T05:45:21;100016.28;;;3.51;89.77
16821;BME280;8527;49.740;6.604;2023-04-26T05:50:22;100026.88;;;3.61;89.45
16821;BME280;8527;49.740;6.604;2023-04-26T05:55:39;100012.97;;;4.06;87.83
16821;BME280;8527;49.740;6.604;2023-04-26T06:00:43;100012.09;;;4.28;86.63
16821;BME280;8527;49.740;6.604;2023-04-26T06:05:42;100011.13;;;4.52;84.95
16821;BME280;8527;49.740;6.604;2023-04-26T06:10:40;100016.63;;;4.49;85.10
16821;BME280;8527;49.740;6.604;2023-04-26T06:15:41;100019.75;;;4.43;84.60
16821;BME280;8527;49.740;6.604;2023-04-26T06:20:42;100023.38;;;4.74;84.05
16821;BME280;8527;49.740;6.604;2023-04-26T06:25:44;100010.44;;;4.27;85.21
16821;BME280;8527;49.740;6.604;2023-04-26T06:30:45;100017.25;;;4.85;83.21
16821;BME280;8527;49.740;6.604;2023-04-26T06:35:44;100026.72;;;5.09;82.19
16821;BME280;8527;49.740;6.604;2023-04-26T06:40:44;100018.78;;;5.20;81.60
16821;BME280;8527;49.740;6.604;2023-04-26T06:45:45;100017.63;;;4.81;82.29
16821;BME280;8527;49.740;6.604;2023-04-26T06:50:43;100027.28;;;4.80;83.91
16821;BME280;8527;49.740;6.604;2023-04-26T06:55:44;100012.72;;;4.76;83.67
16821;BME280;8527;49.740;6.604;2023-04-26T07:00:48;100022.88;;;5.13;83.17
16821;BME280;8527;49.740;6.604;2023-04-26T07:05:46;100017.06;;;4.98;85.12
16821;BME280;8527;49.740;6.604;2023-04-26T07:10:45;100018.75;;;5.32;81.38
16821;BME280;8527;49.740;6.604;2023-04-26T07:15:46;100019.22;;;5.68;82.12
16821;BME280;8527;49.740;6.604;2023-04-26T07:20:45;100015.28;;;6.05;81.98
16821;BME280;8527;49.740;6.604;2023-04-26T07:25:52;100005.94;;;6.32;80.05
16821;BME280;8527;49.740;6.604;2023-04-26T07:30:59;100012.78;;;5.51;82.08
16821;BME280;8527;49.740;6.604;2023-04-26T07:36:00;100011.31;;;6.21;80.57
16821;BME280;8527;49.740;6.604;2023-04-26T07:40:58;100011.13;;;5.81;81.29
16821;BME280;8527;49.740;6.604;2023-04-26T07:46:01;100017.13;;;6.14;80.90
16821;BME280;8527;49.740;6.604;2023-04-26T07:51:08;100003.13;;;6.24;80.40
16821;BME280;8527;49.740;6.604;2023-04-26T07:56:18;100002.81;;;7.46;75.77
16821;BME280;8527;49.740;6.604;2023-04-26T08:01:20;100000.34;;;7.06;75.85
16821;BME280;8527;49.740;6.604;2023-04-26T08:06:19;100006.41;;;7.45;74.55
16821;BME280;8527;49.740;6.604;2023-04-26T08:11:27;100003.84;;;7.73;73.06
16821;BME280;8527;49.740;6.604;2023-04-26T08:16:28;100008.88;;;8.05;71.11
16821;BME280;8527;49.740;6.604;2023-04-26T08:21:26;100011.34;;;7.68;71.17
16821;BME280;8527;49.740;6.604;2023-04-26T08:26:25;100014.47;;;7.44;72.13
16821;BME280;8527;49.740;6.604;2023-04-26T08:31:26;100013.63;;;7.53;72.32
16821;BME280;8527;49.740;6.604;2023-04-26T08:36:33;99996.97;;;7.43;72.45
16821;BME280;8527;49.740;6.604;2023-04-26T08:41:35;99998.69;;;7.72;70.19
16821;BME280;8527;49.740;6.604;2023-04-26T08:46:46;99994.34;;;7.81;68.53
16821;BME280;8527;49.740;6.604;2023-04-26T08:51:51;99998.25;;;8.70;67.29
16821;BME280;8527;49.740;6.604;2023-04-26T08:56:57;99989.84;;;9.11;64.57
16821;BME280;8527;49.740;6.604;2023-04-26T09:01:59;99986.00;;;8.23;66.64
16821;BME280;8527;49.740;6.604;2023-04-26T09:07:02;99968.25;;;8.80;65.87
16821;BME280;8527;49.740;6.604;2023-04-26T09:12:01;99967.75;;;9.03;64.73
16821;BME280;8527;49.740;6.604;2023-04-26T09:17:02;99964.91;;;9.40;63.75
16821;BME280;8527;49.740;6.604;2023-04-26T09:22:03;99964.00;;;9.84;63.10
16821;BME280;8527;49.740;6.604;2023-04-26T09:27:03;99969.31;;;10.36;63.10
16821;BME280;8527;49.740;6.604;2023-04-26T09:32:02;99979.88;;;11.29;60.97
16821;BME280;8527;49.740;6.604;2023-04-26T09:37:05;99963.47;;;11.25;58.25
16821;BME280;8527;49.740;6.604;2023-04-26T09:42:09;99958.78;;;12.08;56.58
16821;BME280;8527;49.740;6.604;2023-04-26T09:47:09;99960.66;;;11.83;56.05
16821;BME280;8527;49.740;6.604;2023-04-26T09:52:11;99950.97;;;11.42;55.08
16821;BME280;8527;49.740;6.604;2023-04-26T09:57:10;99939.19;;;12.56;52.39
16821;BME280;8527;49.740;6.604;2023-04-26T10:02:16;99939.69;;;12.83;51.28
16821;BME280;8527;49.740;6.604;2023-04-26T10:07:19;99935.72;;;13.17;50.95
16821;BME280;8527;49.740;6.604;2023-04-26T10:12:21;99932.38;;;13.00;52.13
16821;BME280;8527;49.740;6.604;2023-04-26T10:17:19;99922.50;;;13.09;53.41
16821;BME280;8527;49.740;6.604;2023-04-26T10:22:25;99913.22;;;13.20;49.12
16821;BME280;8527;49.740;6.604;2023-04-26T10:27:48;99902.88;;;12.87;47.34
16821;BME280;8527;49.740;6.604;2023-04-26T10:38:22;99898.66;;;12.92;46.30
16821;BME280;8527;49.740;6.604;2023-04-26T10:43:27;99898.56;;;12.16;46.19
16821;BME280;8527;49.740;6.604;2023-04-26T10:48:40;99888.00;;;12.92;47.69
16821;BME280;8527;49.740;6.604;2023-04-26T10:54:04;99879.53;;;14.09;46.76
16821;BME280;8527;49.740;6.604;2023-04-26T10:59:09;99862.53;;;13.73;45.73
16821;BME280;8527;49.740;6.604;2023-04-26T11:04:12;99863.53;;;13.12;45.81
16821;BME280;8527;49.740;6.604;2023-04-26T11:09:37;99859.00;;;13.13;44.87
16821;BME280;8527;49.740;6.604;2023-04-26T11:14:36;99844.22;;;13.40;44.64
16821;BME280;8527;49.740;6.604;2023-04-26T11:19:39;99840.88;;;13.83;43.88
16821;BME280;8527;49.740;6.604;2023-04-26T11:24:41;99849.19;;;13.73;43.88
16821;BME280;8527;49.740;6.604;2023-04-26T11:29:40;99845.09;;;15.08;43.18
16821;BME280;8527;49.740;6.604;2023-04-26T11:34:41;99849.56;;;15.01;39.61
16821;BME280;8527;49.740;6.604;2023-04-26T11:39:44;99838.22;;;15.27;41.03
16821;BME280;8527;49.740;6.604;2023-04-26T11:44:46;99827.66;;;15.61;41.36
16821;BME280;8527;49.740;6.604;2023-04-26T11:49:55;99827.13;;;14.95;38.72
16821;BME280;8527;49.740;6.604;2023-04-26T11:55:04;99825.47;;;15.29;38.98
16821;BME280;8527;49.740;6.604;2023-04-26T12:00:10;99827.34;;;14.21;38.86
16821;BME280;8527;49.740;6.604;2023-04-26T12:05:09;99833.59;;;15.08;39.97
16821;BME280;8527;49.740;6.604;2023-04-26T12:10:22;99823.81;;;14.43;39.53
16821;BME280;8527;49.740;6.604;2023-04-26T12:15:28;99825.06;;;14.18;37.79
16821;BME280;8527;49.740;6.604;2023-04-26T12:20:34;99823.31;;;14.32;37.04
16821;BME280;8527;49.740;6.604;2023-04-26T12:25:36;99813.59;;;14.03;39.08
16821;BME280;8527;49.740;6.604;2023-04-26T12:30:47;99825.97;;;15.04;39.74
16821;BME280;8527;49.740;6.604;2023-04-26T12:35:46;99823.44;;;14.46;37.68
16821;BME280;8527;49.740;6.604;2023-04-26T12:40:50;99821.94;;;14.37;40.66
16821;BME280;8527;49.740;6.604;2023-04-26T12:45:51;99813.66;;;13.36;38.52
16821;BME280;8527;49.740;6.604;2023-04-26T12:50:49;99820.81;;;13.66;40.14
16821;BME280;8527;49.740;6.604;2023-04-26T12:55:51;99818.94;;;14.46;38.29
16821;BME280;8527;49.740;6.604;2023-04-26T13:00:49;99823.81;;;14.65;42.90
16821;BME280;8527;49.740;6.604;2023-04-26T13:05:48;99817.63;;;15.21;38.64
16821;BME280;8527;49.740;6.604;2023-04-26T13:10:46;99814.94;;;15.63;40.19
16821;BME280;8527;49.740;6.604;2023-04-26T13:15:48;99810.75;;;15.96;37.88
16821;BME280;8527;49.740;6.604;2023-04-26T13:20:46;99800.06;;;16.02;40.24
16821;BME280;8527;49.740;6.604;2023-04-26T13:25:48;99806.63;;;16.13;40.01
16821;BME280;8527;49.740;6.604;2023-04-26T13:30:49;99790.81;;;16.12;39.15
16821;BME280;8527;49.740;6.604;2023-04-26T13:35:48;99786.69;;;16.23;39.50
16821;BME280;8527;49.740;6.604;2023-04-26T13:40:46;99785.09;;;15.59;38.20
16821;BME280;8527;49.740;6.604;2023-04-26T13:45:44;99789.13;;;16.17;39.66
16821;BME280;8527;49.740;6.604;2023-04-26T13:50:46;99791.63;;;16.19;39.26
16821;BME280;8527;49.740;6.604;2023-04-26T13:55:44;99802.59;;;15.62;39.61
16821;BME280;8527;49.740;6.604;2023-04-26T14:00:43;99786.72;;;15.54;40.17
16821;BME280;8527;49.740;6.604;2023-04-26T14:05:41;99788.69;;;15.31;39.32
16821;BME280;8527;49.740;6.604;2023-04-26T14:10:45;99779.75;;;15.66;41.03
16821;BME280;8527;49.740;6.604;2023-04-26T14:15:43;99779.34;;;15.63;40.80
16821;BME280;8527;49.740;6.604;2023-04-26T14:20:42;99772.34;;;15.13;39.09
16821;BME280;8527;49.740;6.604;2023-04-26T14:25:43;99770.16;;;15.23;41.26
16821;BME280;8527;49.740;6.604;2023-04-26T14:30:41;99765.34;;;15.12;40.34
16821;BME280;8527;49.740;6.604;2023-04-26T14:35:40;99765.56;;;14.75;41.21
16821;BME280;8527;49.740;6.604;2023-04-26T14:40:38;99770.41;;;14.65;41.64
16821;BME280;8527;49.740;6.604;2023-04-26T14:45:43;99774.44;;;14.82;42.49
16821;BME280;8527;49.740;6.604;2023-04-26T14:50:45;99767.53;;;14.95;41.36
16821;BME280;8527;49.740;6.604;2023-04-26T14:55:43;99771.91;;;15.09;42.57
16821;BME280;8527;49.740;6.604;2023-04-26T15:00:44;99770.31;;;15.15;42.71
16821;BME280;8527;49.740;6.604;2023-04-26T15:05:43;99763.00;;;14.67;40.11
16821;BME280;8527;49.740;6.604;2023-04-26T15:10:41;99758.13;;;14.42;41.72
16821;BME280;8527;49.740;6.604;2023-04-26T15:15:39;99751.38;;;14.74;43.88
16821;BME280;8527;49.740;6.604;2023-04-26T15:20:40;99744.03;;;14.83;43.17
16821;BME280;8527;49.740;6.604;2023-04-26T15:25:39;99746.91;;;14.53;41.98
16821;BME280;8527;49.740;6.604;2023-04-26T15:30:37;99747.91;;;14.74;44.03
16821;BME280;8527;49.740;6.604;2023-04-26T15:35:35;99740.38;;;14.91;43.86
16821;BME280;8527;49.740;6.604;2023-04-26T15:40:37;99751.34;;;15.03;43.58
16821;BME280;8527;49.740;6.604;2023-04-26T15:45:35;99743.88;;;14.91;43.68
16821;BME280;8527;49.740;6.604;2023-04-26T15:50:33;99744.41;;;14.73;43.29
16821;BME280;8527;49.740;6.604;2023-04-26T15:55:33;99748.34;;;14.84;43.80
16821;BME280;8527;49.740;6.604;2023-04-26T16:00:34;99746.34;;;14.86;44.43
16821;BME280;8527;49.740;6.604;2023-04-26T16:05:33;99739.59;;;14.97;44.38
16821;BME280;8527;49.740;6.604;2023-04-26T16:10:34;99739.28;;;14.79;42.81
16821;BME280;8527;49.740;6.604;2023-04-26T16:15:38;99735.66;;;14.58;42.77
16821;BME280;8527;49.740;6.604;2023-04-26T16:20:36;99736.50;;;14.65;43.78
16821;BME280;8527;49.740;6.604;2023-04-26T16:25:35;99731.84;;;14.17;44.45
16821;BME280;8527;49.740;6.604;2023-04-26T16:30:34;99736.00;;;13.98;44.04
16821;BME280;8527;49.740;6.604;2023-04-26T16:35:35;99729.81;;;13.39;43.87
16821;BME280;8527;49.740;6.604;2023-04-26T16:40:33;99730.47;;;13.41;44.81
16821;BME280;8527;49.740;6.604;2023-04-26T16:45:32;99726.34;;;13.53;44.88
16821;BME280;8527;49.740;6.604;2023-04-26T16:50:30;99726.06;;;13.33;44.95
16821;BME280;8527;49.740;6.604;2023-04-26T16:55:31;99730.22;;;13.20;46.58
16821;BME280;8527;49.740;6.604;2023-04-26T17:00:30;99720.41;;;13.06;46.08
16821;BME280;8527;49.740;6.604;2023-04-26T17:05:28;99732.25;;;13.18;46.34
16821;BME280;8527;49.740;6.604;2023-04-26T17:10:32;99724.88;;;13.20;47.28
16821;BME280;8527;49.740;6.604;2023-04-26T17:15:36;99737.47;;;13.27;46.42
16821;BME280;8527;49.740;6.604;2023-04-26T17:20:35;99735.91;;;13.32;45.68
16821;BME280;8527;49.740;6.604;2023-04-26T17:25:36;99738.47;;;13.41;45.91
16821;BME280;8527;49.740;6.604;2023-04-26T17:30:35;99738.75;;;13.31;46.18
16821;BME280;8527;49.740;6.604;2023-04-26T17:35:36;99739.66;;;13.38;45.84
16821;BME280;8527;49.740;6.604;2023-04-26T17:40:37;99735.25;;;13.45;46.94
16821;BME280;8527;49.740;6.604;2023-04-26T17:45:35;99740.41;;;13.47;50.41
16821;BME280;8527;49.740;6.604;2023-04-26T17:50:34;99748.69;;;13.37;51.86
16821;BME280;8527;49.740;6.604;2023-04-26T17:55:32;99747.28;;;13.26;53.29
16821;BME280;8527;49.740;6.604;2023-04-26T18:00:34;99746.13;;;13.14;54.30
16821;BME280;8527;49.740;6.604;2023-04-26T18:05:35;99747.88;;;13.06;55.13
16821;BME280;8527;49.740;6.604;2023-04-26T18:10:34;99753.97;;;12.85;56.69
16821;BME280;8527;49.740;6.604;2023-04-26T18:15:37;99756.97;;;12.82;55.57
16821;BME280;8527;49.740;6.604;2023-04-26T18:20:38;99763.09;;;12.68;57.53
16821;BME280;8527;49.740;6.604;2023-04-26T18:25:37;99766.31;;;12.48;57.55
16821;BME280;8527;49.740;6.604;2023-04-26T18:30:38;99769.41;;;12.36;56.98
16821;BME280;8527;49.740;6.604;2023-04-26T18:35:37;99778.44;;;12.27;57.62
16821;BME280;8527;49.740;6.604;2023-04-26T18:40:41;99776.94;;;12.09;58.25
16821;BME280;8527;49.740;6.604;2023-04-26T18:45:43;99780.78;;;11.99;58.64
16821;BME280;8527;49.740;6.604;2023-04-26T18:50:50;99780.06;;;11.81;58.72
16821;BME280;8527;49.740;6.604;2023-04-26T18:55:50;99788.50;;;11.62;59.79
16821;BME280;8527;49.740;6.604;2023-04-26T19:00:51;99793.06;;;11.45;60.04
16821;BME280;8527;49.740;6.604;2023-04-26T19:05:50;99794.59;;;11.31;60.55
16821;BME280;8527;49.740;6.604;2023-04-26T19:10:51;99795.97;;;11.18;60.11
16821;BME280;8527;49.740;6.604;2023-04-26T19:15:56;99802.16;;;11.10;60.11
16821;BME280;8527;49.740;6.604;2023-04-26T19:20:56;99811.16;;;10.93;60.16
16821;BME280;8527;49.740;6.604;2023-04-26T19:26:00;99810.56;;;10.41;61.11
16821;BME280;8527;49.740;6.604;2023-04-26T19:31:02;99817.53;;;10.42;60.27
16821;BME280;8527;49.740;6.604;2023-04-26T19:36:01;99826.63;;;10.48;60.68
16821;BME280;8527;49.740;6.604;2023-04-26T19:41:02;99829.13;;;10.41;61.85
16821;BME280;8527;49.740;6.604;2023-04-26T19:46:09;99825.63;;;10.32;62.10
16821;BME280;8527;49.740;6.604;2023-04-26T19:51:13;99820.16;;;10.25;61.92
16821;BME280;8527;49.740;6.604;2023-04-26T19:56:11;99822.94;;;10.24;61.85
16821;BME280;8527;49.740;6.604;2023-04-26T20:01:12;99826.75;;;10.13;62.51
16821;BME280;8527;49.740;6.604;2023-04-26T20:06:11;99833.84;;;10.04;63.15
16821;BME280;8527;49.740;6.604;2023-04-26T20:11:10;99832.81;;;9.80;63.71
16821;BME280;8527;49.740;6.604;2023-04-26T20:16:14;99839.09;;;9.79;64.72
16821;BME280;8527;49.740;6.604;2023-04-26T20:21:15;99831.09;;;9.63;65.15
16821;BME280;8527;49.740;6.604;2023-04-26T20:26:13;99832.22;;;9.52;65.08
16821;BME280;8527;49.740;6.604;2023-04-26T20:31:14;99837.13;;;9.38;65.88
16821;BME280;8527;49.740;6.604;2023-04-26T20:36:13;99838.13;;;9.37;65.71
16821;BME280;8527;49.740;6.604;2023-04-26T20:41:13;99862.41;;;8.98;67.54
16821;BME280;8527;49.740;6.604;2023-04-26T20:46:14;99856.47;;;9.04;67.76
16821;BME280;8527;49.740;6.604;2023-04-26T20:51:16;99854.50;;;8.80;68.35
16821;BME280;8527;49.740;6.604;2023-04-26T20:56:14;99854.75;;;8.68;68.79
16821;BME280;8527;49.740;6.604;2023-04-26T21:01:16;99861.69;;;8.69;67.27
16821;BME280;8527;49.740;6.604;2023-04-26T21:06:14;99863.06;;;8.55;68.22
16821;BME280;8527;49.740;6.604;2023-04-26T21:11:12;99870.06;;;8.47;67.75
16821;BME280;8527;49.740;6.604;2023-04-26T21:16:11;99871.88;;;8.46;69.15
16821;BME280;8527;49.740;6.604;2023-04-26T21:21:15;99877.00;;;8.29;70.05
16821;BME280;8527;49.740;6.604;2023-04-26T21:26:13;99880.84;;;8.17;71.66
16821;BME280;8527;49.740;6.604;2023-04-26T21:31:11;99881.47;;;8.11;70.73
16821;BME280;8527;49.740;6.604;2023-04-26T21:36:15;99884.31;;;7.99;70.18
16821;BME280;8527;49.740;6.604;2023-04-26T21:41:13;99878.94;;;7.91;70.08
16821;BME280;8527;49.740;6.604;2023-04-26T21:46:12;99886.19;;;7.89;71.10
16821;BME280;8527;49.740;6.604;2023-04-26T21:51:13;99891.84;;;7.66;71.83
16821;BME280;8527;49.740;6.604;2023-04-26T21:56:12;99875.13;;;7.76;70.74
16821;BME280;8527;49.740;6.604;2023-04-26T22:01:14;99902.53;;;7.65;71.59
16821;BME280;8527;49.740;6.604;2023-04-26T22:06:15;99894.63;;;7.65;71.23
16821;BME280;8527;49.740;6.604;2023-04-26T22:11:13;99893.69;;;7.56;72.76
16821;BME280;8527;49.740;6.604;2023-04-26T22:16:11;99898.41;;;7.14;73.40
16821;BME280;8527;49.740;6.604;2023-04-26T22:21:10;99902.31;;;7.10;74.38
16821;BME280;8527;49.740;6.604;2023-04-26T22:26:11;99914.28;;;7.04;74.86
16821;BME280;8527;49.740;6.604;2023-04-26T22:31:09;99910.94;;;7.02;74.68
16821;BME280;8527;49.740;6.604;2023-04-26T22:36:08;99899.94;;;7.07;74.87
16821;BME280;8527;49.740;6.604;2023-04-26T22:41:11;99908.16;;;7.04;75.30
16821;BME280;8527;49.740;6.604;2023-04-26T22:46:13;99907.59;;;7.00;75.64
16821;BME280;8527;49.740;6.604;2023-04-26T22:51:15;99919.97;;;6.90;75.70
16821;BME280;8527;49.740;6.604;2023-04-26T22:56:19;99921.09;;;6.78;75.57
16821;BME280;8527;49.740;6.604;2023-04-26T23:01:18;99913.44;;;6.74;74.95
16821;BME280;8527;49.740;6.604;2023-04-26T23:06:19;99919.72;;;6.64;75.24
16821;BME280;8527;49.740;6.604;2023-04-26T23:11:20;99919.56;;;6.45;75.95
16821;BME280;8527;49.740;6.604;2023-04-26T23:16:19;99918.72;;;6.35;76.36
16821;BME280;8527;49.740;6.604;2023-04-26T23:21:18;99927.47;;;6.36;77.20
16821;BME280;8527;49.740;6.604;2023-04-26T23:26:16;99928.66;;;6.22;77.71
16821;BME280;8527;49.740;6.604;2023-04-26T23:31:17;99929.53;;;5.91;77.97
16821;BME280;8527;49.740;6.604;2023-04-26T23:36:15;99931.75;;;5.86;78.11
16821;BME280;8527;49.740;6.604;2023-04-26T23:41:14;99941.06;;;6.00;78.12
16821;BME280;8527;49.740;6.604;2023-04-26T23:46:18;99935.56;;;6.03;78.13
16821;BME280;8527;49.740;6.604;2023-04-26T23:51:16;99928.50;;;6.03;77.34
16821;BME280;8527;49.740;6.604;2023-04-26T23:56:15;99944.25;;;5.94;78.25
